createdAt,value
2018-09-11T00:00:42.266Z,18.90
2018-09-11T00:03:10.412Z,18.90
2018-09-11T00:05:38.561Z,18.90
2018-09-11T00:08:06.702Z,18.90
2018-09-11T00:10:34.862Z,18.90
2018-09-11T00:13:02.998Z,18.90
2018-09-11T00:15:31.154Z,18.90
2018-09-11T00:17:59.314Z,18.90
2018-09-11T00:20:27.478Z,18.90
2018-09-11T00:22:55.625Z,18.90
2018-09-11T00:25:23.782Z,18.90
2018-09-11T00:27:51.955Z,18.90
2018-09-11T00:30:20.114Z,18.90
2018-09-11T00:32:48.279Z,18.80
2018-09-11T00:35:16.458Z,18.80
2018-09-11T00:37:44.609Z,18.80
2018-09-11T00:40:12.757Z,18.80
2018-09-11T00:42:40.922Z,18.80
2018-09-11T00:45:09.062Z,18.80
2018-09-11T00:47:37.213Z,18.70
2018-09-11T00:50:05.481Z,18.70
2018-09-11T00:52:33.665Z,18.70
2018-09-11T00:55:01.846Z,18.70
2018-09-11T00:57:30.006Z,18.70
2018-09-11T00:59:58.142Z,18.70
2018-09-11T01:02:26.291Z,18.70
2018-09-11T01:04:54.424Z,18.60
2018-09-11T01:07:22.582Z,18.60
2018-09-11T01:09:50.713Z,18.60
2018-09-11T01:12:18.878Z,18.60
2018-09-11T01:14:47.008Z,18.60
2018-09-11T01:17:15.145Z,18.50
2018-09-11T01:19:43.286Z,18.50
2018-09-11T01:22:11.606Z,18.50
2018-09-11T01:24:39.758Z,18.50
2018-09-11T01:27:07.909Z,18.40
2018-09-11T01:29:36.056Z,18.50
2018-09-11T01:32:04.210Z,18.40
2018-09-11T01:34:32.346Z,18.40
2018-09-11T01:37:00.502Z,18.40
2018-09-11T01:39:28.630Z,18.40
2018-09-11T01:41:56.822Z,18.40
2018-09-11T01:44:24.964Z,18.40
2018-09-11T01:46:53.101Z,18.40
2018-09-11T01:49:21.254Z,18.40
2018-09-11T01:51:49.393Z,18.40
2018-09-11T01:54:17.710Z,18.40
2018-09-11T01:56:45.865Z,18.40
2018-09-11T01:59:14.010Z,18.40
2018-09-11T02:01:42.213Z,18.30
2018-09-11T02:04:10.386Z,18.30
2018-09-11T02:06:38.534Z,18.40
2018-09-11T02:09:09.102Z,18.30
2018-09-11T02:11:37.239Z,18.30
2018-09-11T02:14:05.398Z,18.30
2018-09-11T02:16:33.541Z,18.30
2018-09-11T02:19:01.879Z,18.30
2018-09-11T02:21:30.022Z,18.30
2018-09-11T02:23:58.173Z,18.30
2018-09-11T02:26:26.311Z,18.30
2018-09-11T02:28:54.643Z,18.30
2018-09-11T02:31:22.787Z,18.30
2018-09-11T02:33:50.927Z,18.20
2018-09-11T02:36:19.101Z,18.20
2018-09-11T02:38:47.294Z,18.20
2018-09-11T02:41:15.430Z,18.20
2018-09-11T02:43:43.577Z,18.20
2018-09-11T02:46:11.723Z,18.20
2018-09-11T02:48:39.870Z,18.20
2018-09-11T02:51:08.019Z,18.20
2018-09-11T02:53:36.167Z,18.20
2018-09-11T02:56:04.649Z,18.20
2018-09-11T02:58:32.806Z,18.20
2018-09-11T03:01:00.959Z,18.20
2018-09-11T03:03:29.101Z,18.10
2018-09-11T03:05:57.246Z,18.10
2018-09-11T03:08:25.395Z,18.10
2018-09-11T03:10:53.547Z,18.10
2018-09-11T03:13:21.706Z,18.10
2018-09-11T03:15:49.852Z,18.10
2018-09-11T03:18:18.197Z,18.10
2018-09-11T03:20:46.347Z,18.10
2018-09-11T03:23:14.503Z,18.10
2018-09-11T03:25:42.642Z,18.00
2018-09-11T03:28:10.787Z,18.00
2018-09-11T03:30:38.935Z,18.00
2018-09-11T03:33:07.070Z,18.00
2018-09-11T03:35:35.218Z,18.00
2018-09-11T03:38:03.366Z,18.00
2018-09-11T03:40:31.513Z,18.00
2018-09-11T03:42:59.663Z,18.00
2018-09-11T03:45:27.837Z,18.00
2018-09-11T03:47:55.966Z,18.00
2018-09-11T03:50:24.184Z,17.90
2018-09-11T03:52:52.335Z,17.90
2018-09-11T03:55:20.479Z,17.90
2018-09-11T03:57:48.662Z,17.90
2018-09-11T04:00:16.814Z,17.80
2018-09-11T04:02:44.987Z,17.80
2018-09-11T04:05:13.134Z,17.90
2018-09-11T04:07:41.287Z,17.80
2018-09-11T04:10:09.447Z,17.90
2018-09-11T04:12:37.607Z,17.90
2018-09-11T04:15:05.765Z,17.80
2018-09-11T04:17:40.217Z,17.80
2018-09-11T04:20:08.366Z,17.80
2018-09-11T04:22:37.490Z,17.80
2018-09-11T04:25:05.644Z,17.80
2018-09-11T04:27:33.983Z,17.80
2018-09-11T04:30:02.158Z,17.80
2018-09-11T04:32:30.315Z,17.80
2018-09-11T04:34:58.466Z,17.80
2018-09-11T04:37:26.626Z,17.80
2018-09-11T04:39:54.813Z,17.80
2018-09-11T04:42:23.150Z,17.80
2018-09-11T04:44:51.314Z,17.80
2018-09-11T04:47:19.474Z,17.80
2018-09-11T04:49:47.656Z,17.80
2018-09-11T04:52:15.853Z,17.80
2018-09-11T04:54:44.250Z,17.80
2018-09-11T04:57:12.565Z,17.80
2018-09-11T04:59:40.737Z,17.80
2018-09-11T05:02:08.883Z,17.80
2018-09-11T05:04:37.074Z,17.80
2018-09-11T05:07:05.311Z,17.70
2018-09-11T05:09:33.482Z,17.70
2018-09-11T05:12:01.663Z,17.70
2018-09-11T05:14:29.899Z,17.70
2018-09-11T05:16:58.087Z,17.70
2018-09-11T05:19:26.258Z,17.70
2018-09-11T05:21:54.407Z,17.70
2018-09-11T05:24:22.648Z,17.70
2018-09-11T05:26:50.805Z,17.70
2018-09-11T05:29:18.966Z,17.70
2018-09-11T05:31:47.133Z,17.70
2018-09-11T05:34:15.467Z,17.70
2018-09-11T05:36:43.617Z,17.70
2018-09-11T05:39:11.822Z,17.80
2018-09-11T05:41:39.942Z,17.80
2018-09-11T05:44:08.138Z,17.80
2018-09-11T05:46:36.278Z,17.80
2018-09-11T05:49:04.446Z,17.90
2018-09-11T05:51:32.626Z,17.90
2018-09-11T05:54:00.757Z,17.90
2018-09-11T05:56:28.904Z,17.90
2018-09-11T05:58:57.071Z,17.90
2018-09-11T06:01:25.233Z,17.90
2018-09-11T06:03:53.387Z,17.90
2018-09-11T06:06:21.575Z,18.00
2018-09-11T06:08:49.816Z,17.90
2018-09-11T06:11:17.975Z,18.00
2018-09-11T06:13:46.150Z,18.00
2018-09-11T06:16:14.377Z,18.00
2018-09-11T06:18:42.522Z,18.10
2018-09-11T06:21:10.701Z,18.10
2018-09-11T06:23:38.851Z,18.10
2018-09-11T06:26:07.055Z,18.10
2018-09-11T06:28:35.209Z,18.20
2018-09-11T06:31:03.408Z,18.20
2018-09-11T06:33:31.566Z,18.20
2018-09-11T06:35:59.730Z,18.30
2018-09-11T06:38:28.017Z,18.30
2018-09-11T06:40:56.234Z,18.30
2018-09-11T06:43:24.420Z,18.30
2018-09-11T06:45:52.584Z,18.40
2018-09-11T06:48:20.747Z,18.40
2018-09-11T06:50:48.907Z,18.40
2018-09-11T06:53:17.102Z,18.50
2018-09-11T06:55:45.298Z,18.50
2018-09-11T06:58:13.469Z,18.50
2018-09-11T07:00:41.698Z,18.50
2018-09-11T07:03:09.782Z,18.60
2018-09-11T07:05:37.986Z,18.60
2018-09-11T07:08:06.125Z,18.60
2018-09-11T07:10:34.340Z,18.70
2018-09-11T07:13:02.492Z,18.70
2018-09-11T07:15:30.637Z,18.80
2018-09-11T07:17:58.787Z,18.80
2018-09-11T07:20:27.124Z,18.80
2018-09-11T07:22:55.100Z,18.90
2018-09-11T07:25:23.233Z,19.00
2018-09-11T07:27:51.399Z,19.00
2018-09-11T07:30:19.596Z,19.00
2018-09-11T07:32:47.742Z,19.10
2018-09-11T07:35:15.925Z,19.10
2018-09-11T07:37:44.086Z,19.20
2018-09-11T07:40:12.206Z,19.20
2018-09-11T07:42:40.355Z,19.30
2018-09-11T07:45:08.534Z,19.30
2018-09-11T07:47:36.694Z,19.40
2018-09-11T07:50:05.061Z,19.40
2018-09-11T07:52:33.253Z,19.50
2018-09-11T07:55:01.425Z,19.50
2018-09-11T07:57:29.686Z,19.60
2018-09-11T07:59:57.872Z,19.60
2018-09-11T08:02:26.024Z,19.70
2018-09-11T08:04:54.195Z,19.70
2018-09-11T08:07:22.374Z,19.70
2018-09-11T08:09:50.510Z,19.80
2018-09-11T08:12:18.664Z,19.80
2018-09-11T08:14:46.808Z,19.80
2018-09-11T08:17:15.048Z,19.80
2018-09-11T08:19:43.249Z,19.80
2018-09-11T08:22:11.357Z,19.90
2018-09-11T08:24:39.598Z,19.90
2018-09-11T08:27:07.753Z,19.90
2018-09-11T08:29:35.907Z,19.90
2018-09-11T08:32:04.078Z,19.90
2018-09-11T08:34:32.255Z,19.90
2018-09-11T08:37:00.429Z,20.00
2018-09-11T08:39:28.591Z,20.00
2018-09-11T08:41:57.115Z,20.00
2018-09-11T08:44:25.278Z,20.00
2018-09-11T08:46:53.429Z,20.00
2018-09-11T08:49:21.622Z,20.00
2018-09-11T08:51:49.834Z,20.10
2018-09-11T08:54:18.023Z,20.10
2018-09-11T08:56:46.182Z,20.10
2018-09-11T08:59:14.390Z,20.10
2018-09-11T09:01:42.534Z,20.10
2018-09-11T09:04:10.702Z,20.10
2018-09-11T09:06:38.878Z,20.20
2018-09-11T09:09:09.014Z,20.10
2018-09-11T09:11:37.631Z,20.20
2018-09-11T09:14:05.866Z,20.20
2018-09-11T09:16:34.113Z,20.20
2018-09-11T09:19:02.296Z,20.30
2018-09-11T09:21:30.440Z,20.30
2018-09-11T09:23:58.595Z,20.30
2018-09-11T09:26:26.778Z,20.40
2018-09-11T09:28:55.034Z,20.40
2018-09-11T09:31:23.422Z,20.50
2018-09-11T09:33:51.602Z,20.50
2018-09-11T09:36:20.371Z,20.60
2018-09-11T09:38:48.503Z,20.70
2018-09-11T09:41:16.673Z,20.70
2018-09-11T09:43:44.855Z,20.80
2018-09-11T09:46:12.996Z,20.90
2018-09-11T09:48:41.150Z,21.00
2018-09-11T09:51:09.314Z,21.10
2018-09-11T09:53:37.503Z,21.20
2018-09-11T09:56:05.666Z,21.30
2018-09-11T09:58:33.853Z,21.40
2018-09-11T10:01:07.446Z,21.50
2018-09-11T10:03:36.139Z,21.60
2018-09-11T10:06:04.410Z,21.70
2018-09-11T10:08:32.590Z,21.70
2018-09-11T10:11:00.775Z,21.80
2018-09-11T10:13:28.936Z,21.90
2018-09-11T10:15:57.263Z,22.00
2018-09-11T10:18:25.656Z,22.00
2018-09-11T10:20:53.835Z,22.10
2018-09-11T10:23:22.102Z,22.20
2018-09-11T10:25:50.267Z,22.30
2018-09-11T10:28:18.434Z,22.40
2018-09-11T10:30:46.690Z,22.50
2018-09-11T10:33:14.855Z,22.60
2018-09-11T10:35:43.190Z,22.60
2018-09-11T10:38:11.428Z,22.70
2018-09-11T10:40:39.838Z,22.80
2018-09-11T10:43:08.070Z,22.90
2018-09-11T10:45:36.246Z,22.90
2018-09-11T10:48:04.406Z,23.00
2018-09-11T10:50:32.578Z,23.10
2018-09-11T10:53:00.754Z,23.20
2018-09-11T10:55:28.967Z,23.30
2018-09-11T10:57:57.122Z,23.30
2018-09-11T11:00:25.356Z,23.40
2018-09-11T11:02:53.576Z,23.40
2018-09-11T11:05:21.748Z,23.40
2018-09-11T11:07:49.902Z,23.50
2018-09-11T11:10:18.089Z,23.50
2018-09-11T11:12:46.240Z,23.50
2018-09-11T11:15:14.442Z,23.60
2018-09-11T11:17:42.639Z,23.60
2018-09-11T11:20:10.802Z,23.60
2018-09-11T11:22:38.961Z,23.60
2018-09-11T11:25:07.234Z,23.70
2018-09-11T11:27:35.365Z,23.70
2018-09-11T11:30:03.512Z,23.70
2018-09-11T11:32:31.658Z,23.70
2018-09-11T11:34:59.831Z,23.80
2018-09-11T11:37:28.277Z,23.70
2018-09-11T11:39:56.268Z,23.80
2018-09-11T11:42:24.505Z,23.70
2018-09-11T11:44:52.634Z,23.80
2018-09-11T11:47:21.133Z,23.80
2018-09-11T11:49:50.445Z,23.80
2018-09-11T11:52:18.919Z,23.80
2018-09-11T11:54:47.208Z,23.80
2018-09-11T11:57:15.398Z,23.80
2018-09-11T11:59:43.576Z,23.90
2018-09-11T12:02:11.744Z,23.90
2018-09-11T12:04:39.907Z,23.90
2018-09-11T12:07:08.138Z,23.90
2018-09-11T12:09:36.302Z,23.90
2018-09-11T12:12:04.475Z,24.00
2018-09-11T12:14:32.810Z,24.00
2018-09-11T12:17:01.046Z,24.00
2018-09-11T12:19:29.362Z,24.00
2018-09-11T12:21:57.528Z,24.00
2018-09-11T12:24:25.688Z,24.00
2018-09-11T12:26:54.175Z,24.00
2018-09-11T12:29:22.327Z,24.00
2018-09-11T12:31:50.479Z,24.00
2018-09-11T12:34:18.637Z,24.10
2018-09-11T12:36:46.848Z,24.10
2018-09-11T12:39:14.998Z,24.10
2018-09-11T12:41:43.161Z,24.10
2018-09-11T12:44:11.355Z,24.10
2018-09-11T12:46:39.962Z,24.10
2018-09-11T12:49:07.803Z,24.10
2018-09-11T12:51:35.974Z,24.20
2018-09-11T12:54:04.118Z,24.20
2018-09-11T12:56:32.290Z,24.20
2018-09-11T12:59:00.434Z,24.20
2018-09-11T13:01:28.604Z,24.20
2018-09-11T13:03:56.762Z,24.20
2018-09-11T13:06:24.918Z,24.20
2018-09-11T13:08:53.183Z,24.20
2018-09-11T13:11:21.341Z,24.20
2018-09-11T13:13:49.650Z,24.30
2018-09-11T13:16:17.814Z,24.30
2018-09-11T13:18:45.991Z,24.30
2018-09-11T13:21:14.130Z,24.40
2018-09-11T13:23:42.290Z,24.40
2018-09-11T13:26:10.437Z,24.40
2018-09-11T13:28:38.596Z,24.40
2018-09-11T13:31:06.816Z,24.40
2018-09-11T13:33:34.969Z,24.40
2018-09-11T13:36:03.110Z,24.50
2018-09-11T13:38:31.302Z,24.50
2018-09-11T13:40:59.458Z,24.50
2018-09-11T13:43:27.657Z,24.50
2018-09-11T13:45:55.820Z,24.50
2018-09-11T13:48:24.054Z,24.50
2018-09-11T13:50:52.246Z,24.60
2018-09-11T13:53:20.397Z,24.60
2018-09-11T13:55:48.527Z,24.60
2018-09-11T13:58:16.682Z,24.70
2018-09-11T14:00:44.866Z,24.70
2018-09-11T14:03:13.059Z,24.70
2018-09-11T14:05:41.206Z,24.70
2018-09-11T14:08:09.698Z,24.70
2018-09-11T14:10:37.901Z,24.80
2018-09-11T14:13:06.202Z,24.80
2018-09-11T14:15:34.369Z,24.80
2018-09-11T14:18:02.563Z,24.80
2018-09-11T14:20:30.728Z,24.80
2018-09-11T14:22:58.918Z,24.80
2018-09-11T14:25:27.106Z,24.90
2018-09-11T14:27:55.250Z,24.90
2018-09-11T14:30:23.434Z,24.90
2018-09-11T14:32:51.686Z,24.90
2018-09-11T14:35:19.872Z,24.90
2018-09-11T14:37:48.130Z,24.90
2018-09-11T14:40:16.294Z,24.90
2018-09-11T14:42:44.479Z,24.90
2018-09-11T14:45:12.642Z,24.90
2018-09-11T14:47:41.711Z,25.00
2018-09-11T14:50:09.990Z,24.90
2018-09-11T14:52:38.363Z,25.00
2018-09-11T14:55:06.888Z,25.00
2018-09-11T14:57:35.633Z,25.00
2018-09-11T15:00:04.252Z,25.00
2018-09-11T15:02:32.370Z,25.00
2018-09-11T15:05:00.682Z,25.00
2018-09-11T15:07:29.198Z,25.00
2018-09-11T15:09:57.434Z,25.00
2018-09-11T15:12:25.622Z,25.10
2018-09-11T15:14:53.952Z,25.10
2018-09-11T15:17:22.477Z,25.10
2018-09-11T15:19:50.659Z,25.00
2018-09-11T15:22:18.901Z,25.10
2018-09-11T15:24:47.000Z,25.10
2018-09-11T15:27:15.186Z,25.10
2018-09-11T15:29:43.402Z,25.10
2018-09-11T15:32:11.578Z,25.10
2018-09-11T15:34:39.783Z,25.10
2018-09-11T15:37:07.984Z,25.10
2018-09-11T15:39:36.136Z,25.10
2018-09-11T15:42:04.369Z,25.10
2018-09-11T15:44:32.563Z,25.10
2018-09-11T15:47:00.821Z,25.10
2018-09-11T15:49:29.017Z,25.10
2018-09-11T15:51:57.182Z,25.10
2018-09-11T15:54:25.383Z,25.20
2018-09-11T15:56:53.555Z,25.20
2018-09-11T15:59:21.698Z,25.20
2018-09-11T16:01:49.847Z,25.10
2018-09-11T16:04:18.018Z,25.10
2018-09-11T16:06:46.183Z,25.10
2018-09-11T16:09:14.345Z,25.10
2018-09-11T16:11:42.520Z,25.10
2018-09-11T16:14:11.474Z,25.10
2018-09-11T16:16:39.710Z,25.10
2018-09-11T16:19:07.883Z,25.10
2018-09-11T16:21:36.037Z,25.10
2018-09-11T16:24:04.220Z,25.10
2018-09-11T16:26:33.050Z,25.10
2018-09-11T16:29:01.466Z,25.10
2018-09-11T16:31:30.024Z,25.10
2018-09-11T16:33:58.187Z,25.10
2018-09-11T16:36:26.427Z,25.10
2018-09-11T16:38:54.567Z,25.10
2018-09-11T16:41:22.710Z,25.10
2018-09-11T16:43:50.852Z,25.00
2018-09-11T16:46:19.010Z,25.00
2018-09-11T16:48:47.176Z,25.00
2018-09-11T16:51:15.357Z,25.00
2018-09-11T16:53:43.600Z,25.00
2018-09-11T16:56:11.853Z,25.00
2018-09-11T16:58:41.492Z,24.90
2018-09-11T17:01:09.742Z,24.90
2018-09-11T17:03:38.692Z,24.90
2018-09-11T17:06:08.393Z,24.90
2018-09-11T17:08:36.664Z,24.90
2018-09-11T17:11:04.762Z,24.90
2018-09-11T17:13:32.930Z,24.90
2018-09-11T17:16:01.123Z,24.90
2018-09-11T17:18:29.281Z,24.90
2018-09-11T17:20:57.426Z,24.80
2018-09-11T17:23:25.729Z,24.80
2018-09-11T17:25:53.902Z,24.80
2018-09-11T17:28:22.067Z,24.80
2018-09-11T17:30:50.251Z,24.80
2018-09-11T17:33:18.434Z,24.70
2018-09-11T17:35:46.653Z,24.70
2018-09-11T17:38:14.815Z,24.70
2018-09-11T17:40:43.055Z,24.70
2018-09-11T17:43:11.219Z,24.70
2018-09-11T17:45:39.435Z,24.70
2018-09-11T17:48:07.633Z,24.70
2018-09-11T17:50:36.652Z,24.60
2018-09-11T17:53:04.827Z,24.60
2018-09-11T17:55:33.054Z,24.60
2018-09-11T17:58:01.214Z,24.60
2018-09-11T18:00:29.361Z,24.50
2018-09-11T18:02:57.586Z,24.50
2018-09-11T18:05:25.720Z,24.50
2018-09-11T18:07:53.867Z,24.50
2018-09-11T18:10:22.078Z,24.50
2018-09-11T18:12:50.227Z,24.50
2018-09-11T18:15:18.367Z,24.50
2018-09-11T18:17:46.600Z,24.50
2018-09-11T18:20:14.813Z,24.50
2018-09-11T18:22:43.047Z,24.40
2018-09-11T18:25:12.079Z,24.40
2018-09-11T18:27:41.007Z,24.40
2018-09-11T18:30:09.576Z,24.40
2018-09-11T18:32:38.128Z,24.40
2018-09-11T18:35:08.518Z,24.40
2018-09-11T18:37:37.430Z,24.30
2018-09-11T18:40:05.852Z,24.30
2018-09-11T18:42:34.202Z,24.30
2018-09-11T18:45:02.351Z,24.30
2018-09-11T18:47:31.137Z,24.30
2018-09-11T18:49:59.323Z,24.20
2018-09-11T18:52:27.670Z,24.20
2018-09-11T18:54:55.860Z,24.20
2018-09-11T18:57:24.058Z,24.20
2018-09-11T18:59:52.510Z,24.20
2018-09-11T19:02:20.774Z,24.20
2018-09-11T19:04:48.945Z,24.10
2018-09-11T19:07:17.122Z,24.10
2018-09-11T19:09:45.326Z,24.10
2018-09-11T19:12:13.506Z,24.10
2018-09-11T19:14:41.672Z,24.10
2018-09-11T19:17:09.846Z,24.10
2018-09-11T19:19:38.022Z,24.10
2018-09-11T19:22:06.198Z,24.00
2018-09-11T19:24:34.370Z,24.00
2018-09-11T19:27:02.557Z,24.00
2018-09-11T19:29:30.746Z,24.00
2018-09-11T19:31:58.893Z,24.00
2018-09-11T19:34:27.074Z,23.90
2018-09-11T19:36:55.229Z,23.90
2018-09-11T19:39:23.443Z,23.90
2018-09-11T19:41:51.606Z,23.90
2018-09-11T19:44:19.838Z,23.90
2018-09-11T19:46:48.022Z,23.90
2018-09-11T19:49:16.410Z,23.90
2018-09-11T19:51:44.622Z,23.80
2018-09-11T19:54:12.842Z,23.80
2018-09-11T19:56:41.115Z,23.80
2018-09-11T19:59:09.470Z,23.80
2018-09-11T20:01:37.627Z,23.70
2018-09-11T20:04:05.786Z,23.70
2018-09-11T20:06:33.959Z,23.70
2018-09-11T20:09:02.118Z,23.70
2018-09-11T20:11:30.434Z,23.60
2018-09-11T20:13:58.607Z,23.60
2018-09-11T20:16:26.781Z,23.60
2018-09-11T20:18:55.057Z,23.60
2018-09-11T20:21:23.211Z,23.60
2018-09-11T20:23:51.355Z,23.50
2018-09-11T20:26:19.516Z,23.50
2018-09-11T20:28:47.706Z,23.50
2018-09-11T20:31:15.896Z,23.50
2018-09-11T20:33:44.141Z,23.40
2018-09-11T20:36:12.347Z,23.40
2018-09-11T20:38:40.579Z,23.40
2018-09-11T20:41:08.770Z,23.40
2018-09-11T20:43:36.922Z,23.40
2018-09-11T20:46:05.115Z,23.30
2018-09-11T20:48:33.263Z,23.30
2018-09-11T20:51:01.423Z,23.30
2018-09-11T20:53:29.619Z,23.20
2018-09-11T20:55:57.897Z,23.20
2018-09-11T20:58:26.004Z,23.20
2018-09-11T21:00:54.186Z,23.10
2018-09-11T21:03:22.355Z,23.10
2018-09-11T21:05:50.534Z,23.10
2018-09-11T21:08:19.309Z,23.10
2018-09-11T21:10:47.771Z,23.10
2018-09-11T21:13:16.046Z,23.00
2018-09-11T21:15:44.818Z,23.00
2018-09-11T21:18:12.969Z,23.00
2018-09-11T21:20:41.186Z,23.00
2018-09-11T21:23:11.257Z,22.90
2018-09-11T21:25:39.642Z,22.90
2018-09-11T21:28:07.966Z,22.90
2018-09-11T21:30:36.150Z,22.90
2018-09-11T21:33:04.314Z,22.90
2018-09-11T21:35:32.451Z,22.80
2018-09-11T21:38:00.617Z,22.80
2018-09-11T21:40:28.750Z,22.80
2018-09-11T21:42:56.913Z,22.80
2018-09-11T21:45:25.046Z,22.80
2018-09-11T21:47:53.201Z,22.70
2018-09-11T21:50:21.393Z,22.70
2018-09-11T21:52:49.566Z,22.70
2018-09-11T21:55:17.723Z,22.60
2018-09-11T21:57:45.885Z,22.60
2018-09-11T22:00:14.117Z,22.60
2018-09-11T22:02:42.211Z,22.60
2018-09-11T22:05:10.877Z,22.60
2018-09-11T22:07:39.047Z,22.50
2018-09-11T22:10:08.558Z,22.50
2018-09-11T22:12:36.730Z,22.50
2018-09-11T22:15:05.014Z,22.50
2018-09-11T22:17:33.234Z,22.50
2018-09-11T22:20:01.371Z,22.40
2018-09-11T22:22:29.527Z,22.50
2018-09-11T22:24:57.825Z,22.40
2018-09-11T22:27:25.873Z,22.40
2018-09-11T22:29:54.039Z,22.40
2018-09-11T22:32:22.224Z,22.40
2018-09-11T22:34:50.370Z,22.40
2018-09-11T22:37:18.673Z,22.40
2018-09-11T22:39:46.710Z,22.40
2018-09-11T22:42:14.855Z,22.40
2018-09-11T22:44:43.017Z,22.30
2018-09-11T22:47:11.150Z,22.30
2018-09-11T22:49:39.374Z,22.30
2018-09-11T22:52:07.520Z,22.30
2018-09-11T22:54:35.678Z,22.30
2018-09-11T22:57:03.865Z,22.30
2018-09-11T22:59:32.019Z,22.30
2018-09-11T23:02:00.171Z,22.30
2018-09-11T23:04:28.350Z,22.30
2018-09-11T23:06:56.518Z,22.20
2018-09-11T23:09:24.718Z,22.20
2018-09-11T23:11:52.872Z,22.20
2018-09-11T23:14:21.034Z,22.20
2018-09-11T23:16:49.176Z,22.20
2018-09-11T23:19:17.351Z,22.10
2018-09-11T23:21:45.507Z,22.10
2018-09-11T23:24:13.668Z,22.10
2018-09-11T23:26:41.826Z,22.10
2018-09-11T23:29:09.983Z,22.10
2018-09-11T23:31:38.139Z,22.10
2018-09-11T23:34:06.519Z,22.00
2018-09-11T23:36:35.491Z,22.00
2018-09-11T23:39:04.646Z,22.00
2018-09-11T23:41:32.820Z,22.00
2018-09-11T23:44:00.969Z,22.00
2018-09-11T23:46:29.142Z,22.00
2018-09-11T23:48:57.339Z,22.00
2018-09-11T23:51:25.507Z,22.00
2018-09-11T23:53:53.688Z,22.00
2018-09-11T23:56:21.893Z,22.00
2018-09-11T23:58:50.082Z,21.90
